createdAt,value
2018-06-28T00:02:58.056Z,12.23
2018-06-28T00:06:02.177Z,12.00
2018-06-28T00:09:07.272Z,11.90
2018-06-28T00:12:10.569Z,11.77
2018-06-28T00:15:13.946Z,11.71
2018-06-28T00:18:17.236Z,11.62
2018-06-28T00:21:20.315Z,11.58
2018-06-28T00:24:23.585Z,11.68
2018-06-28T00:27:26.769Z,11.80
2018-06-28T00:30:30.020Z,11.88
2018-06-28T00:33:33.478Z,12.00
2018-06-28T00:36:36.807Z,12.04
2018-06-28T00:39:40.705Z,12.02
2018-06-28T00:42:43.874Z,11.92
2018-06-28T00:45:47.260Z,11.79
2018-06-28T00:48:50.928Z,11.77
2018-06-28T00:51:54.106Z,11.69
2018-06-28T00:54:57.437Z,11.61
2018-06-28T00:58:00.504Z,11.53
2018-06-28T01:01:03.718Z,11.35
2018-06-28T01:04:06.893Z,11.28
2018-06-28T01:07:10.163Z,11.25
2018-06-28T01:10:13.442Z,11.23
2018-06-28T01:13:17.683Z,11.20
2018-06-28T01:16:20.857Z,11.20
2018-06-28T01:19:25.093Z,11.14
2018-06-28T01:22:28.232Z,11.09
2018-06-28T01:25:31.489Z,11.13
2018-06-28T01:28:34.571Z,11.21
2018-06-28T01:31:37.670Z,11.29
2018-06-28T01:34:40.831Z,11.34
2018-06-28T01:37:44.049Z,11.28
2018-06-28T01:40:47.264Z,11.24
2018-06-28T01:43:50.414Z,11.16
2018-06-28T01:46:53.684Z,11.02
2018-06-28T01:49:57.956Z,10.85
2018-06-28T01:53:01.068Z,10.78
2018-06-28T01:56:04.383Z,10.79
2018-06-28T01:59:07.657Z,10.84
2018-06-28T02:02:10.909Z,10.82
2018-06-28T02:05:14.094Z,10.84
2018-06-28T02:08:17.533Z,10.85
2018-06-28T02:11:34.968Z,10.82
2018-06-28T02:14:38.157Z,10.73
2018-06-28T02:17:41.214Z,10.68
2018-06-28T02:20:44.468Z,10.65
2018-06-28T02:23:47.623Z,10.54
2018-06-28T02:26:50.822Z,10.49
2018-06-28T02:29:54.011Z,10.39
2018-06-28T02:32:57.213Z,10.34
2018-06-28T02:36:00.309Z,10.34
2018-06-28T02:39:05.628Z,10.33
2018-06-28T02:42:08.812Z,10.35
2018-06-28T02:45:12.144Z,10.26
2018-06-28T02:48:15.387Z,10.10
2018-06-28T02:51:18.680Z,9.99
2018-06-28T02:54:21.901Z,9.90
2018-06-28T02:57:25.124Z,9.93
2018-06-28T03:00:28.367Z,9.97
2018-06-28T03:03:31.663Z,9.99
2018-06-28T03:06:35.868Z,10.00
2018-06-28T03:09:39.000Z,10.08
2018-06-28T03:12:43.282Z,10.16
2018-06-28T03:15:47.432Z,10.16
2018-06-28T03:18:50.628Z,10.13
2018-06-28T03:21:53.982Z,10.06
2018-06-28T03:24:58.222Z,10.10
2018-06-28T03:28:01.349Z,10.18
2018-06-28T03:31:04.676Z,10.23
2018-06-28T03:34:07.702Z,10.33
2018-06-28T03:37:10.893Z,10.43
2018-06-28T03:40:14.176Z,10.56
2018-06-28T03:43:17.398Z,10.68
2018-06-28T03:46:20.486Z,10.78
2018-06-28T03:49:23.785Z,10.95
2018-06-28T03:52:26.915Z,11.07
2018-06-28T03:55:30.202Z,11.22
2018-06-28T03:58:33.354Z,11.55
2018-06-28T04:01:36.627Z,12.26
2018-06-28T04:04:39.896Z,13.29
2018-06-28T04:07:44.119Z,14.22
2018-06-28T04:10:47.252Z,14.58
2018-06-28T04:13:50.569Z,15.15
2018-06-28T04:16:53.885Z,15.87
2018-06-28T04:19:57.049Z,16.42
2018-06-28T04:23:01.261Z,17.40
2018-06-28T04:26:04.648Z,17.23
2018-06-28T04:29:07.852Z,17.60
2018-06-28T04:32:11.055Z,19.30
2018-06-28T04:35:14.222Z,20.69
2018-06-28T04:38:18.390Z,21.31
2018-06-28T04:41:21.910Z,21.75
2018-06-28T04:44:25.142Z,22.04
2018-06-28T04:47:28.431Z,22.41
2018-06-28T04:50:31.785Z,22.91
2018-06-28T04:53:35.056Z,23.27
2018-06-28T04:56:38.260Z,23.47
2018-06-28T04:59:42.584Z,23.56
2018-06-28T05:02:46.765Z,23.64
2018-06-28T05:05:50.065Z,23.47
2018-06-28T05:08:53.223Z,24.21
2018-06-28T05:11:56.663Z,24.71
2018-06-28T05:14:59.805Z,25.53
2018-06-28T05:18:02.997Z,26.22
2018-06-28T05:21:06.179Z,26.84
2018-06-28T05:24:09.417Z,27.49
2018-06-28T05:27:12.717Z,28.29
2018-06-28T05:30:16.391Z,27.99
2018-06-28T05:33:19.546Z,27.70
2018-06-28T05:36:22.727Z,27.67
2018-06-28T05:39:26.069Z,27.69
2018-06-28T05:42:29.337Z,27.27
2018-06-28T05:45:32.394Z,24.94
2018-06-28T05:48:35.534Z,22.79
2018-06-28T05:51:38.718Z,22.83
2018-06-28T05:54:41.766Z,22.77
2018-06-28T05:57:44.947Z,23.78
2018-06-28T06:00:48.256Z,24.90
2018-06-28T06:03:51.503Z,25.24
2018-06-28T06:06:54.683Z,24.94
2018-06-28T06:09:57.875Z,25.90
2018-06-28T06:13:01.278Z,27.49
2018-06-28T06:16:04.270Z,28.21
2018-06-28T06:19:07.487Z,29.20
2018-06-28T06:22:10.569Z,29.67
2018-06-28T06:25:13.738Z,29.17
2018-06-28T06:28:16.815Z,28.77
2018-06-28T06:31:20.090Z,30.12
2018-06-28T06:34:23.369Z,29.78
2018-06-28T06:37:26.589Z,28.93
2018-06-28T06:40:29.983Z,28.94
2018-06-28T06:43:33.498Z,28.02
2018-06-28T06:46:36.808Z,27.39
2018-06-28T06:49:39.962Z,28.19
2018-06-28T06:52:43.080Z,28.58
2018-06-28T06:55:46.889Z,28.20
2018-06-28T06:58:49.939Z,28.27
2018-06-28T07:01:53.187Z,28.44
2018-06-28T07:04:56.400Z,28.30
2018-06-28T07:07:59.743Z,28.23
2018-06-28T07:11:03.130Z,29.40
2018-06-28T07:14:06.138Z,30.28
2018-06-28T07:17:09.326Z,31.46
2018-06-28T07:20:12.597Z,31.19
2018-06-28T07:23:15.909Z,31.09
2018-06-28T07:26:19.132Z,30.01
2018-06-28T07:29:22.293Z,29.64
2018-06-28T07:32:25.673Z,28.62
2018-06-28T07:35:28.889Z,28.29
2018-06-28T07:38:32.028Z,28.33
2018-06-28T07:41:35.160Z,27.69
2018-06-28T07:44:38.396Z,27.79
2018-06-28T07:47:41.684Z,28.01
2018-06-28T07:50:45.008Z,29.40
2018-06-28T07:53:50.242Z,28.65
2018-06-28T07:56:53.467Z,27.64
2018-06-28T07:59:56.562Z,27.02
2018-06-28T08:02:59.694Z,27.38
2018-06-28T08:06:03.440Z,26.32
2018-06-28T08:09:06.912Z,27.14
2018-06-28T08:12:10.003Z,26.27
2018-06-28T08:15:13.075Z,25.96
2018-06-28T08:18:16.327Z,25.29
2018-06-28T08:21:28.281Z,25.17
2018-06-28T08:24:31.409Z,25.74
2018-06-28T08:27:34.769Z,25.29
2018-06-28T08:30:38.144Z,24.16
2018-06-28T08:33:41.975Z,23.84
2018-06-28T08:36:45.064Z,24.03
2018-06-28T08:39:48.255Z,24.73
2018-06-28T08:42:51.461Z,24.62
2018-06-28T08:45:54.683Z,25.04
2018-06-28T08:48:57.891Z,23.90
2018-06-28T08:52:01.106Z,24.12
2018-06-28T08:55:05.102Z,24.08
2018-06-28T08:58:08.383Z,24.47
2018-06-28T09:01:11.650Z,24.56
2018-06-28T09:04:14.781Z,25.16
2018-06-28T09:07:17.980Z,25.76
2018-06-28T09:10:23.936Z,26.03
2018-06-28T09:13:27.090Z,25.85
2018-06-28T09:16:30.309Z,25.57
2018-06-28T09:19:33.489Z,25.50
2018-06-28T09:22:36.792Z,24.76
2018-06-28T09:25:39.881Z,25.17
2018-06-28T09:28:44.242Z,25.73
2018-06-28T09:31:47.493Z,25.78
2018-06-28T09:34:57.422Z,26.32
2018-06-28T09:38:01.723Z,26.21
2018-06-28T09:41:04.982Z,26.98
2018-06-28T09:44:08.147Z,27.20
2018-06-28T09:47:11.300Z,27.14
2018-06-28T09:50:14.362Z,27.38
2018-06-28T09:53:17.524Z,27.48
2018-06-28T09:56:20.668Z,27.08
2018-06-28T09:59:23.731Z,26.27
2018-06-28T10:02:26.787Z,25.55
2018-06-28T10:05:30.032Z,25.65
2018-06-28T10:08:33.079Z,25.94
2018-06-28T10:11:36.159Z,26.61
2018-06-28T10:14:39.418Z,26.92
2018-06-28T10:17:42.446Z,27.11
2018-06-28T10:20:46.259Z,26.56
2018-06-28T10:23:49.591Z,26.91
2018-06-28T10:26:52.625Z,27.41
2018-06-28T10:29:55.933Z,27.25
2018-06-28T10:32:59.072Z,27.03
2018-06-28T10:36:02.109Z,27.14
2018-06-28T10:39:07.384Z,27.43
2018-06-28T10:42:10.574Z,27.21
2018-06-28T10:45:13.817Z,28.18
2018-06-28T10:48:16.931Z,28.36
2018-06-28T10:51:20.260Z,28.04
2018-06-28T10:54:23.265Z,28.28
2018-06-28T10:57:26.504Z,28.74
2018-06-28T11:00:30.047Z,28.49
2018-06-28T11:03:33.138Z,28.16
2018-06-28T11:06:36.292Z,27.87
2018-06-28T11:09:39.530Z,27.77
2018-06-28T11:12:42.786Z,27.29
2018-06-28T11:15:46.212Z,27.55
2018-06-28T11:18:49.218Z,28.29
2018-06-28T11:21:52.310Z,28.43
2018-06-28T11:24:55.413Z,28.16
2018-06-28T11:27:58.587Z,27.47
2018-06-28T11:31:01.822Z,27.37
2018-06-28T11:34:05.260Z,28.19
2018-06-28T11:37:08.404Z,28.80
2018-06-28T11:40:11.527Z,28.94
2018-06-28T11:43:14.760Z,28.32
2018-06-28T11:46:17.807Z,28.17
2018-06-28T11:49:22.682Z,28.54
2018-06-28T11:52:26.053Z,29.33
2018-06-28T11:55:29.292Z,28.61
2018-06-28T11:58:32.561Z,28.18
2018-06-28T12:01:35.926Z,28.59
2018-06-28T12:04:40.071Z,28.91
2018-06-28T12:07:43.425Z,29.11
2018-06-28T12:10:46.782Z,29.61
2018-06-28T12:13:49.976Z,29.47
2018-06-28T12:16:53.048Z,29.13
2018-06-28T12:19:56.161Z,28.17
2018-06-28T12:22:59.309Z,28.28
2018-06-28T12:26:02.426Z,28.84
2018-06-28T12:29:06.605Z,28.68
2018-06-28T12:32:09.806Z,28.16
2018-06-28T12:35:12.859Z,27.70
2018-06-28T12:38:17.106Z,28.39
2018-06-28T12:41:20.303Z,28.12
2018-06-28T12:44:23.279Z,28.33
2018-06-28T12:47:40.267Z,28.92
2018-06-28T12:50:44.336Z,28.35
2018-06-28T12:53:52.850Z,28.10
2018-06-28T12:56:59.546Z,28.87
2018-06-28T13:00:04.023Z,29.82
2018-06-28T13:03:07.130Z,30.36
2018-06-28T13:06:10.220Z,31.00
2018-06-28T13:09:15.780Z,29.96
2018-06-28T13:12:20.890Z,28.77
2018-06-28T13:15:24.038Z,28.72
2018-06-28T13:18:27.172Z,28.97
2018-06-28T13:21:30.248Z,29.38
2018-06-28T13:24:33.375Z,28.85
2018-06-28T13:27:36.432Z,29.84
2018-06-28T13:30:39.671Z,30.54
2018-06-28T13:33:42.996Z,30.03
2018-06-28T13:36:46.064Z,29.49
2018-06-28T13:39:49.258Z,29.93
2018-06-28T13:42:52.351Z,29.63
2018-06-28T13:45:55.672Z,30.19
2018-06-28T13:48:58.772Z,30.23
2018-06-28T13:52:02.092Z,29.71
2018-06-28T13:55:05.164Z,30.00
2018-06-28T13:58:08.424Z,29.61
2018-06-28T14:01:11.673Z,29.77
2018-06-28T14:04:14.965Z,29.85
2018-06-28T14:07:18.360Z,30.04
2018-06-28T14:10:21.668Z,31.57
2018-06-28T14:13:24.690Z,31.45
2018-06-28T14:16:27.844Z,31.30
2018-06-28T14:19:30.954Z,30.06
2018-06-28T14:22:34.329Z,29.76
2018-06-28T14:25:38.531Z,29.43
2018-06-28T14:28:43.613Z,28.94
2018-06-28T14:31:46.788Z,29.55
2018-06-28T14:34:49.964Z,30.46
2018-06-28T14:37:54.200Z,31.00
2018-06-28T14:40:57.756Z,31.70
2018-06-28T14:44:00.976Z,31.47
2018-06-28T14:47:04.431Z,30.50
2018-06-28T14:50:07.789Z,29.46
2018-06-28T14:53:11.183Z,28.86
2018-06-28T14:56:14.404Z,28.55
2018-06-28T14:59:17.483Z,29.22
2018-06-28T15:02:20.560Z,30.71
2018-06-28T15:05:23.893Z,31.72
2018-06-28T15:08:27.200Z,32.05
2018-06-28T15:11:30.461Z,31.42
2018-06-28T15:14:33.556Z,31.19
2018-06-28T15:17:36.681Z,31.51
2018-06-28T15:20:40.196Z,31.09
2018-06-28T15:23:43.542Z,30.47
2018-06-28T15:26:46.810Z,31.12
2018-06-28T15:29:50.114Z,30.46
2018-06-28T15:32:53.568Z,30.65
2018-06-28T15:35:56.912Z,31.49
2018-06-28T15:39:00.144Z,31.95
2018-06-28T15:42:03.464Z,32.15
2018-06-28T15:45:06.843Z,32.19
2018-06-28T15:48:10.287Z,31.26
2018-06-28T15:51:13.909Z,30.85
2018-06-28T15:54:17.336Z,30.15
2018-06-28T15:57:20.737Z,29.37
2018-06-28T16:00:31.270Z,28.64
2018-06-28T16:03:34.688Z,28.43
2018-06-28T16:06:37.785Z,28.23
2018-06-28T16:09:40.959Z,28.12
2018-06-28T16:12:44.066Z,28.08
2018-06-28T16:15:47.181Z,27.85
2018-06-28T16:18:50.396Z,27.53
2018-06-28T16:21:53.582Z,27.35
2018-06-28T16:24:56.844Z,27.27
2018-06-28T16:28:01.127Z,27.27
2018-06-28T16:31:04.428Z,27.20
2018-06-28T16:34:07.751Z,27.24
2018-06-28T16:37:10.821Z,27.11
2018-06-28T16:40:14.455Z,27.01
2018-06-28T16:43:18.901Z,26.93
2018-06-28T16:46:23.189Z,26.89
2018-06-28T16:49:27.451Z,26.81
2018-06-28T16:52:31.781Z,26.63
2018-06-28T16:55:35.055Z,26.54
2018-06-28T16:58:38.294Z,26.51
2018-06-28T17:01:41.526Z,26.47
2018-06-28T17:04:45.720Z,26.42
2018-06-28T17:07:49.102Z,26.31
2018-06-28T17:10:53.569Z,26.19
2018-06-28T17:13:56.728Z,26.02
2018-06-28T17:17:00.056Z,25.97
2018-06-28T17:20:03.281Z,25.91
2018-06-28T17:23:06.585Z,25.91
2018-06-28T17:26:09.799Z,25.89
2018-06-28T17:29:12.986Z,25.93
2018-06-28T17:32:16.063Z,26.02
2018-06-28T17:35:19.245Z,26.16
2018-06-28T17:38:22.462Z,26.24
2018-06-28T17:41:25.831Z,26.18
2018-06-28T17:44:30.045Z,26.15
2018-06-28T17:47:35.348Z,26.14
2018-06-28T17:50:40.708Z,26.12
2018-06-28T17:53:43.872Z,26.20
2018-06-28T17:56:47.071Z,26.17
2018-06-28T17:59:51.478Z,26.29
2018-06-28T18:02:54.647Z,26.28
2018-06-28T18:05:57.699Z,26.30
2018-06-28T18:09:01.162Z,26.51
2018-06-28T18:12:04.207Z,27.08
2018-06-28T18:15:07.445Z,27.05
2018-06-28T18:18:10.646Z,26.62
2018-06-28T18:21:13.872Z,26.07
2018-06-28T18:24:17.981Z,25.67
2018-06-28T18:27:21.204Z,25.34
2018-06-28T18:30:24.440Z,25.14
2018-06-28T18:33:27.748Z,25.02
2018-06-28T18:36:30.935Z,24.94
2018-06-28T18:39:34.120Z,24.82
2018-06-28T18:42:37.370Z,24.73
2018-06-28T18:45:40.477Z,24.75
2018-06-28T18:48:43.808Z,24.63
2018-06-28T18:51:46.951Z,24.61
2018-06-28T18:54:50.311Z,24.52
2018-06-28T18:57:53.521Z,24.45
2018-06-28T19:00:56.808Z,24.41
2018-06-28T19:04:01.074Z,24.28
2018-06-28T19:07:06.890Z,24.24
2018-06-28T19:10:17.043Z,24.13
2018-06-28T19:13:23.753Z,23.90
2018-06-28T19:16:32.630Z,23.81
2018-06-28T19:19:35.746Z,23.70
2018-06-28T19:22:44.429Z,23.58
2018-06-28T19:25:49.567Z,23.40
2018-06-28T19:28:52.775Z,23.17
2018-06-28T19:32:01.684Z,22.91
2018-06-28T19:35:05.206Z,22.61
2018-06-28T19:38:08.470Z,22.31
2018-06-28T19:41:18.254Z,21.99
2018-06-28T19:44:21.430Z,21.71
2018-06-28T19:47:24.538Z,21.50
2018-06-28T19:50:34.215Z,21.30
2018-06-28T19:53:37.283Z,21.16
2018-06-28T19:56:40.300Z,21.02
2018-06-28T19:59:48.050Z,20.89
2018-06-28T20:02:56.781Z,20.82
2018-06-28T20:05:59.993Z,20.80
2018-06-28T20:09:03.208Z,20.82
2018-06-28T20:12:11.020Z,20.86
2018-06-28T20:15:19.840Z,20.90
2018-06-28T20:18:28.608Z,20.93
2018-06-28T20:21:31.945Z,21.03
2018-06-28T20:24:34.967Z,21.09
2018-06-28T20:27:44.192Z,21.13
2018-06-28T20:30:53.668Z,21.17
2018-06-28T20:34:02.321Z,21.23
2018-06-28T20:37:05.588Z,21.25
2018-06-28T20:40:09.831Z,21.28
2018-06-28T20:43:14.102Z,21.28
2018-06-28T20:46:17.622Z,21.27
2018-06-28T20:49:21.869Z,21.30
2018-06-28T20:52:25.968Z,21.31
2018-06-28T20:55:30.374Z,21.32
2018-06-28T20:58:35.786Z,21.30
2018-06-28T21:01:39.070Z,21.28
2018-06-28T21:04:42.275Z,21.25
2018-06-28T21:07:45.741Z,21.24
2018-06-28T21:10:50.011Z,21.23
2018-06-28T21:13:53.179Z,21.19
2018-06-28T21:17:00.144Z,21.16
2018-06-28T21:20:04.113Z,21.13
2018-06-28T21:23:09.383Z,21.07
2018-06-28T21:26:14.680Z,21.02
2018-06-28T21:29:20.611Z,20.95
2018-06-28T21:32:23.745Z,20.90
2018-06-28T21:35:26.882Z,20.83
2018-06-28T21:38:30.010Z,20.79
2018-06-28T21:41:33.295Z,20.72
2018-06-28T21:44:36.451Z,20.69
2018-06-28T21:47:39.709Z,20.66
2018-06-28T21:50:42.909Z,20.63
2018-06-28T21:53:46.291Z,20.58
2018-06-28T21:56:49.480Z,20.57
2018-06-28T21:59:52.658Z,20.54
2018-06-28T22:02:55.958Z,20.49
2018-06-28T22:05:59.304Z,20.46
2018-06-28T22:09:02.572Z,20.40
2018-06-28T22:12:05.844Z,20.34
2018-06-28T22:15:13.504Z,20.31
2018-06-28T22:18:16.570Z,20.28
2018-06-28T22:21:19.585Z,20.28
2018-06-28T22:24:22.628Z,20.31
2018-06-28T22:27:26.239Z,20.27
2018-06-28T22:30:29.375Z,20.26
2018-06-28T22:33:32.711Z,20.22
2018-06-28T22:36:36.111Z,20.21
2018-06-28T22:39:39.249Z,20.16
2018-06-28T22:42:42.340Z,20.12
2018-06-28T22:45:46.407Z,20.08
2018-06-28T22:48:49.485Z,20.02
2018-06-28T22:51:52.891Z,19.98
2018-06-28T22:54:56.415Z,19.92
2018-06-28T22:58:01.489Z,19.87
2018-06-28T23:01:04.615Z,19.88
2018-06-28T23:04:08.941Z,19.88
2018-06-28T23:14:11.847Z,19.88
2018-06-28T23:17:15.000Z,19.90
2018-06-28T23:20:20.214Z,19.95
2018-06-28T23:23:23.791Z,19.95
2018-06-28T23:26:27.011Z,19.97
2018-06-28T23:29:30.321Z,19.93
2018-06-28T23:32:34.772Z,19.92
2018-06-28T23:35:38.286Z,19.94
2018-06-28T23:38:41.942Z,19.95
2018-06-28T23:41:46.658Z,19.97
2018-06-28T23:44:50.157Z,19.98
2018-06-28T23:47:54.984Z,19.99
2018-06-28T23:50:58.199Z,20.01
2018-06-28T23:54:01.967Z,20.00
2018-06-28T23:57:08.793Z,19.96
